sensor_id;sensor_type;location;lat;lon;timestamp;P1;durP1;ratioP1;P2;durP2;ratioP2
35223;SDS011;21367;51.930;8.112;2023-07-29T00:02:45;5.88;;;2.58;;
35223;SDS011;21367;51.930;8.112;2023-07-29T00:07:51;3.95;;;1.85;;
35223;SDS011;21367;51.930;8.112;2023-07-29T00:12:55;4.32;;;2.20;;
35223;SDS011;21367;51.930;8.112;2023-07-29T00:17:59;3.70;;;2.05;;
35223;SDS011;21367;51.930;8.112;2023-07-29T00:23:05;2.67;;;2.10;;
35223;SDS011;21367;51.930;8.112;2023-07-29T00:28:09;5.03;;;2.00;;
35223;SDS011;21367;51.930;8.112;2023-07-29T00:33:12;7.30;;;2.85;;
35223;SDS011;21367;51.930;8.112;2023-07-29T00:38:19;5.50;;;3.10;;
35223;SDS011;21367;51.930;8.112;2023-07-29T00:43:22;7.43;;;3.10;;
35223;SDS011;21367;51.930;8.112;2023-07-29T00:48:26;4.85;;;2.97;;
35223;SDS011;21367;51.930;8.112;2023-07-29T00:53:33;7.03;;;3.58;;
35223;SDS011;21367;51.930;8.112;2023-07-29T00:58:37;6.68;;;2.85;;
35223;SDS011;21367;51.930;8.112;2023-07-29T01:03:40;4.07;;;2.38;;
35223;SDS011;21367;51.930;8.112;2023-07-29T01:08:50;6.10;;;2.30;;
35223;SDS011;21367;51.930;8.112;2023-07-29T01:13:58;5.85;;;2.78;;
35223;SDS011;21367;51.930;8.112;2023-07-29T01:19:07;5.70;;;2.50;;
35223;SDS011;21367;51.930;8.112;2023-07-29T01:24:28;3.70;;;2.72;;
35223;SDS011;21367;51.930;8.112;2023-07-29T01:29:31;4.97;;;2.80;;
35223;SDS011;21367;51.930;8.112;2023-07-29T01:34:38;9.05;;;2.78;;
35223;SDS011;21367;51.930;8.112;2023-07-29T01:39:48;7.53;;;3.08;;
35223;SDS011;21367;51.930;8.112;2023-07-29T01:44:53;4.35;;;2.72;;
35223;SDS011;21367;51.930;8.112;2023-07-29T01:49:57;5.60;;;2.92;;
35223;SDS011;21367;51.930;8.112;2023-07-29T01:55:03;4.72;;;3.03;;
35223;SDS011;21367;51.930;8.112;2023-07-29T02:00:08;4.28;;;2.67;;
35223;SDS011;21367;51.930;8.112;2023-07-29T02:05:15;3.97;;;3.10;;
35223;SDS011;21367;51.930;8.112;2023-07-29T02:10:21;5.55;;;3.45;;
35223;SDS011;21367;51.930;8.112;2023-07-29T02:15:25;5.05;;;3.10;;
35223;SDS011;21367;51.930;8.112;2023-07-29T02:20:29;5.35;;;3.13;;
35223;SDS011;21367;51.930;8.112;2023-07-29T02:25:37;3.42;;;2.65;;
35223;SDS011;21367;51.930;8.112;2023-07-29T02:30:41;6.43;;;3.22;;
35223;SDS011;21367;51.930;8.112;2023-07-29T02:35:45;5.53;;;3.00;;
35223;SDS011;21367;51.930;8.112;2023-07-29T02:40:52;6.10;;;2.45;;
35223;SDS011;21367;51.930;8.112;2023-07-29T02:45:55;5.72;;;2.80;;
35223;SDS011;21367;51.930;8.112;2023-07-29T02:50:59;5.20;;;2.60;;
35223;SDS011;21367;51.930;8.112;2023-07-29T02:56:06;5.65;;;2.90;;
35223;SDS011;21367;51.930;8.112;2023-07-29T03:01:10;4.55;;;2.58;;
35223;SDS011;21367;51.930;8.112;2023-07-29T03:06:14;5.22;;;2.97;;
35223;SDS011;21367;51.930;8.112;2023-07-29T03:11:20;6.85;;;2.85;;
35223;SDS011;21367;51.930;8.112;2023-07-29T03:16:24;4.20;;;2.55;;
35223;SDS011;21367;51.930;8.112;2023-07-29T03:21:30;5.43;;;2.78;;
35223;SDS011;21367;51.930;8.112;2023-07-29T03:26:36;6.28;;;2.65;;
35223;SDS011;21367;51.930;8.112;2023-07-29T03:31:40;6.90;;;2.75;;
35223;SDS011;21367;51.930;8.112;2023-07-29T03:36:44;5.40;;;2.97;;
35223;SDS011;21367;51.930;8.112;2023-07-29T03:41:50;5.32;;;3.00;;
35223;SDS011;21367;51.930;8.112;2023-07-29T03:46:54;5.20;;;2.80;;
35223;SDS011;21367;51.930;8.112;2023-07-29T03:51:58;4.93;;;2.70;;
35223;SDS011;21367;51.930;8.112;2023-07-29T03:57:05;4.28;;;2.33;;
35223;SDS011;21367;51.930;8.112;2023-07-29T04:02:08;4.22;;;2.75;;
35223;SDS011;21367;51.930;8.112;2023-07-29T04:07:12;8.77;;;2.92;;
35223;SDS011;21367;51.930;8.112;2023-07-29T04:12:19;7.68;;;2.60;;
35223;SDS011;21367;51.930;8.112;2023-07-29T04:17:23;5.43;;;2.75;;
35223;SDS011;21367;51.930;8.112;2023-07-29T04:22:27;5.05;;;2.58;;
35223;SDS011;21367;51.930;8.112;2023-07-29T04:27:33;6.03;;;2.95;;
35223;SDS011;21367;51.930;8.112;2023-07-29T04:32:37;4.47;;;3.05;;
35223;SDS011;21367;51.930;8.112;2023-07-29T04:37:42;2.90;;;2.50;;
35223;SDS011;21367;51.930;8.112;2023-07-29T04:47:54;7.80;;;2.72;;
35223;SDS011;21367;51.930;8.112;2023-07-29T04:52:58;5.88;;;2.45;;
35223;SDS011;21367;51.930;8.112;2023-07-29T04:58:04;5.57;;;2.58;;
35223;SDS011;21367;51.930;8.112;2023-07-29T05:03:10;8.10;;;2.50;;
35223;SDS011;21367;51.930;8.112;2023-07-29T05:08:14;4.43;;;2.92;;
35223;SDS011;21367;51.930;8.112;2023-07-29T05:13:20;4.50;;;2.38;;
35223;SDS011;21367;51.930;8.112;2023-07-29T05:18:24;3.40;;;2.22;;
35223;SDS011;21367;51.930;8.112;2023-07-29T05:23:28;5.18;;;2.75;;
35223;SDS011;21367;51.930;8.112;2023-07-29T05:28:34;8.25;;;2.72;;
35223;SDS011;21367;51.930;8.112;2023-07-29T05:33:38;6.72;;;2.45;;
35223;SDS011;21367;51.930;8.112;2023-07-29T05:38:42;5.47;;;2.38;;
35223;SDS011;21367;51.930;8.112;2023-07-29T05:43:48;3.78;;;2.00;;
35223;SDS011;21367;51.930;8.112;2023-07-29T05:48:52;4.80;;;2.88;;
35223;SDS011;21367;51.930;8.112;2023-07-29T05:53:55;4.57;;;2.25;;
35223;SDS011;21367;51.930;8.112;2023-07-29T05:59:02;7.15;;;2.75;;
35223;SDS011;21367;51.930;8.112;2023-07-29T06:04:05;4.97;;;3.58;;
35223;SDS011;21367;51.930;8.112;2023-07-29T06:09:09;10.27;;;5.88;;
35223;SDS011;21367;51.930;8.112;2023-07-29T06:14:15;12.75;;;6.93;;
35223;SDS011;21367;51.930;8.112;2023-07-29T06:19:19;16.98;;;10.18;;
35223;SDS011;21367;51.930;8.112;2023-07-29T06:24:23;24.52;;;14.40;;
35223;SDS011;21367;51.930;8.112;2023-07-29T06:29:30;28.20;;;17.33;;
35223;SDS011;21367;51.930;8.112;2023-07-29T06:34:34;23.98;;;16.02;;
35223;SDS011;21367;51.930;8.112;2023-07-29T06:39:37;24.15;;;15.00;;
35223;SDS011;21367;51.930;8.112;2023-07-29T06:44:44;19.38;;;13.70;;
35223;SDS011;21367;51.930;8.112;2023-07-29T06:49:48;23.20;;;12.93;;
35223;SDS011;21367;51.930;8.112;2023-07-29T06:54:52;14.60;;;9.02;;
35223;SDS011;21367;51.930;8.112;2023-07-29T06:59:58;16.42;;;8.43;;
35223;SDS011;21367;51.930;8.112;2023-07-29T07:05:02;12.40;;;7.75;;
35223;SDS011;21367;51.930;8.112;2023-07-29T07:10:06;10.48;;;7.82;;
35223;SDS011;21367;51.930;8.112;2023-07-29T07:15:12;15.32;;;7.20;;
35223;SDS011;21367;51.930;8.112;2023-07-29T07:20:16;10.40;;;6.70;;
35223;SDS011;21367;51.930;8.112;2023-07-29T07:25:20;10.45;;;7.30;;
35223;SDS011;21367;51.930;8.112;2023-07-29T07:30:26;8.20;;;6.70;;
35223;SDS011;21367;51.930;8.112;2023-07-29T07:35:30;10.45;;;5.53;;
35223;SDS011;21367;51.930;8.112;2023-07-29T07:40:34;12.57;;;4.78;;
35223;SDS011;21367;51.930;8.112;2023-07-29T07:45:40;13.63;;;5.65;;
35223;SDS011;21367;51.930;8.112;2023-07-29T07:50:44;10.55;;;5.25;;
35223;SDS011;21367;51.930;8.112;2023-07-29T07:55:47;5.03;;;3.70;;
35223;SDS011;21367;51.930;8.112;2023-07-29T08:00:53;9.90;;;3.42;;
35223;SDS011;21367;51.930;8.112;2023-07-29T08:06:04;6.28;;;3.45;;
35223;SDS011;21367;51.930;8.112;2023-07-29T08:11:08;5.53;;;2.75;;
35223;SDS011;21367;51.930;8.112;2023-07-29T08:16:14;7.72;;;2.80;;
35223;SDS011;21367;51.930;8.112;2023-07-29T08:21:18;11.93;;;2.05;;
35223;SDS011;21367;51.930;8.112;2023-07-29T08:26:22;2.45;;;1.40;;
35223;SDS011;21367;51.930;8.112;2023-07-29T08:31:28;6.18;;;1.40;;
35223;SDS011;21367;51.930;8.112;2023-07-29T08:36:33;4.22;;;1.60;;
35223;SDS011;21367;51.930;8.112;2023-07-29T08:41:39;4.60;;;1.30;;
35223;SDS011;21367;51.930;8.112;2023-07-29T08:46:50;3.00;;;1.52;;
35223;SDS011;21367;51.930;8.112;2023-07-29T08:51:56;2.33;;;1.38;;
35223;SDS011;21367;51.930;8.112;2023-07-29T08:57:01;7.03;;;1.50;;
35223;SDS011;21367;51.930;8.112;2023-07-29T09:02:08;3.17;;;1.40;;
35223;SDS011;21367;51.930;8.112;2023-07-29T09:07:12;9.07;;;1.90;;
35223;SDS011;21367;51.930;8.112;2023-07-29T09:12:16;1.58;;;1.33;;
35223;SDS011;21367;51.930;8.112;2023-07-29T09:17:22;1.65;;;1.40;;
35223;SDS011;21367;51.930;8.112;2023-07-29T09:22:26;6.63;;;1.40;;
35223;SDS011;21367;51.930;8.112;2023-07-29T09:27:30;2.05;;;1.17;;
35223;SDS011;21367;51.930;8.112;2023-07-29T09:32:41;1.05;;;0.80;;
35223;SDS011;21367;51.930;8.112;2023-07-29T09:37:45;2.63;;;0.75;;
35223;SDS011;21367;51.930;8.112;2023-07-29T09:42:50;2.17;;;0.77;;
35223;SDS011;21367;51.930;8.112;2023-07-29T09:47:57;3.83;;;0.70;;
35223;SDS011;21367;51.930;8.112;2023-07-29T09:53:01;1.95;;;0.90;;
35223;SDS011;21367;51.930;8.112;2023-07-29T09:58:06;2.42;;;1.10;;
35223;SDS011;21367;51.930;8.112;2023-07-29T10:03:12;1.70;;;0.80;;
35223;SDS011;21367;51.930;8.112;2023-07-29T10:08:17;5.70;;;0.98;;
35223;SDS011;21367;51.930;8.112;2023-07-29T10:13:22;1.55;;;0.63;;
35223;SDS011;21367;51.930;8.112;2023-07-29T10:18:31;1.10;;;0.80;;
35223;SDS011;21367;51.930;8.112;2023-07-29T10:23:37;0.55;;;0.55;;
35223;SDS011;21367;51.930;8.112;2023-07-29T10:28:46;1.38;;;0.88;;
35223;SDS011;21367;51.930;8.112;2023-07-29T10:44:01;4.72;;;0.90;;
35223;SDS011;21367;51.930;8.112;2023-07-29T10:49:07;1.30;;;0.90;;
35223;SDS011;21367;51.930;8.112;2023-07-29T10:54:11;3.53;;;0.90;;
35223;SDS011;21367;51.930;8.112;2023-07-29T10:59:31;1.35;;;0.82;;
35223;SDS011;21367;51.930;8.112;2023-07-29T11:04:45;5.32;;;1.00;;
35223;SDS011;21367;51.930;8.112;2023-07-29T11:09:56;2.80;;;0.75;;
35223;SDS011;21367;51.930;8.112;2023-07-29T11:15:12;2.80;;;1.10;;
35223;SDS011;21367;51.930;8.112;2023-07-29T11:20:24;2.38;;;1.08;;
35223;SDS011;21367;51.930;8.112;2023-07-29T11:25:29;1.58;;;1.00;;
35223;SDS011;21367;51.930;8.112;2023-07-29T11:35:40;6.47;;;1.10;;
35223;SDS011;21367;51.930;8.112;2023-07-29T11:40:43;4.53;;;1.50;;
35223;SDS011;21367;51.930;8.112;2023-07-29T11:45:57;1.83;;;1.23;;
35223;SDS011;21367;51.930;8.112;2023-07-29T11:51:06;2.72;;;1.40;;
35223;SDS011;21367;51.930;8.112;2023-07-29T11:56:11;3.50;;;1.20;;
35223;SDS011;21367;51.930;8.112;2023-07-29T12:01:16;0.98;;;0.80;;
35223;SDS011;21367;51.930;8.112;2023-07-29T12:06:22;1.70;;;0.90;;
35223;SDS011;21367;51.930;8.112;2023-07-29T12:11:27;1.40;;;0.90;;
35223;SDS011;21367;51.930;8.112;2023-07-29T12:16:31;2.25;;;0.95;;
35223;SDS011;21367;51.930;8.112;2023-07-29T12:21:45;4.30;;;0.88;;
35223;SDS011;21367;51.930;8.112;2023-07-29T12:26:49;1.30;;;1.00;;
35223;SDS011;21367;51.930;8.112;2023-07-29T12:31:57;3.95;;;1.00;;
35223;SDS011;21367;51.930;8.112;2023-07-29T12:37:05;7.47;;;0.80;;
35223;SDS011;21367;51.930;8.112;2023-07-29T12:42:10;2.00;;;0.77;;
35223;SDS011;21367;51.930;8.112;2023-07-29T12:47:13;1.42;;;1.02;;
35223;SDS011;21367;51.930;8.112;2023-07-29T12:52:20;2.28;;;1.02;;
35223;SDS011;21367;51.930;8.112;2023-07-29T12:57:23;1.98;;;1.10;;
35223;SDS011;21367;51.930;8.112;2023-07-29T13:02:27;1.88;;;1.20;;
35223;SDS011;21367;51.930;8.112;2023-07-29T13:07:33;1.90;;;1.33;;
35223;SDS011;21367;51.930;8.112;2023-07-29T13:12:37;2.60;;;1.27;;
35223;SDS011;21367;51.930;8.112;2023-07-29T13:17:41;1.00;;;0.88;;
35223;SDS011;21367;51.930;8.112;2023-07-29T13:22:47;6.72;;;1.20;;
35223;SDS011;21367;51.930;8.112;2023-07-29T13:27:51;1.45;;;0.90;;
35223;SDS011;21367;51.930;8.112;2023-07-29T13:32:54;1.33;;;1.00;;
35223;SDS011;21367;51.930;8.112;2023-07-29T13:38:01;2.20;;;1.40;;
35223;SDS011;21367;51.930;8.112;2023-07-29T13:43:05;1.58;;;1.10;;
35223;SDS011;21367;51.930;8.112;2023-07-29T13:48:08;1.80;;;1.13;;
35223;SDS011;21367;51.930;8.112;2023-07-29T13:53:15;2.30;;;1.10;;
35223;SDS011;21367;51.930;8.112;2023-07-29T13:58:18;4.53;;;1.40;;
35223;SDS011;21367;51.930;8.112;2023-07-29T14:03:22;2.10;;;1.40;;
35223;SDS011;21367;51.930;8.112;2023-07-29T14:08:28;4.53;;;2.13;;
35223;SDS011;21367;51.930;8.112;2023-07-29T14:13:32;6.28;;;2.13;;
35223;SDS011;21367;51.930;8.112;2023-07-29T14:18:36;8.30;;;1.90;;
35223;SDS011;21367;51.930;8.112;2023-07-29T14:23:42;4.82;;;1.90;;
35223;SDS011;21367;51.930;8.112;2023-07-29T14:28:46;2.92;;;2.00;;
35223;SDS011;21367;51.930;8.112;2023-07-29T14:33:50;3.05;;;1.70;;
35223;SDS011;21367;51.930;8.112;2023-07-29T14:38:57;9.02;;;1.77;;
35223;SDS011;21367;51.930;8.112;2023-07-29T14:44:00;3.80;;;1.75;;
35223;SDS011;21367;51.930;8.112;2023-07-29T14:50:11;5.47;;;2.00;;
35223;SDS011;21367;51.930;8.112;2023-07-29T14:55:15;3.67;;;1.80;;
35223;SDS011;21367;51.930;8.112;2023-07-29T15:00:19;17.88;;;3.63;;
35223;SDS011;21367;51.930;8.112;2023-07-29T15:05:25;18.35;;;3.15;;
35223;SDS011;21367;51.930;8.112;2023-07-29T15:10:29;7.80;;;2.17;;
35223;SDS011;21367;51.930;8.112;2023-07-29T15:15:33;5.80;;;2.03;;
35223;SDS011;21367;51.930;8.112;2023-07-29T15:20:39;9.68;;;2.17;;
35223;SDS011;21367;51.930;8.112;2023-07-29T15:25:42;3.05;;;1.20;;
35223;SDS011;21367;51.930;8.112;2023-07-29T15:30:46;8.88;;;1.30;;
35223;SDS011;21367;51.930;8.112;2023-07-29T15:35:52;2.05;;;1.30;;
35223;SDS011;21367;51.930;8.112;2023-07-29T15:40:56;1.83;;;0.80;;
35223;SDS011;21367;51.930;8.112;2023-07-29T15:46:00;6.15;;;1.10;;
35223;SDS011;21367;51.930;8.112;2023-07-29T15:51:06;4.93;;;1.02;;
35223;SDS011;21367;51.930;8.112;2023-07-29T15:56:10;2.42;;;1.20;;
35223;SDS011;21367;51.930;8.112;2023-07-29T16:01:14;8.18;;;3.35;;
35223;SDS011;21367;51.930;8.112;2023-07-29T16:06:20;3.33;;;1.95;;
35223;SDS011;21367;51.930;8.112;2023-07-29T16:11:24;2.72;;;1.08;;
35223;SDS011;21367;51.930;8.112;2023-07-29T16:16:30;3.85;;;0.90;;
35223;SDS011;21367;51.930;8.112;2023-07-29T16:21:36;5.28;;;0.80;;
35223;SDS011;21367;51.930;8.112;2023-07-29T16:26:40;3.03;;;0.70;;
35223;SDS011;21367;51.930;8.112;2023-07-29T16:31:43;1.70;;;0.82;;
35223;SDS011;21367;51.930;8.112;2023-07-29T16:36:50;13.88;;;6.75;;
35223;SDS011;21367;51.930;8.112;2023-07-29T16:41:53;5.18;;;1.00;;
35223;SDS011;21367;51.930;8.112;2023-07-29T16:46:57;2.55;;;1.13;;
35223;SDS011;21367;51.930;8.112;2023-07-29T16:52:03;6.97;;;1.20;;
35223;SDS011;21367;51.930;8.112;2023-07-29T16:57:08;1.75;;;0.90;;
35223;SDS011;21367;51.930;8.112;2023-07-29T17:02:12;2.80;;;1.00;;
35223;SDS011;21367;51.930;8.112;2023-07-29T17:07:19;1.45;;;0.80;;
35223;SDS011;21367;51.930;8.112;2023-07-29T17:12:22;9.75;;;1.20;;
35223;SDS011;21367;51.930;8.112;2023-07-29T17:17:26;2.03;;;1.00;;
35223;SDS011;21367;51.930;8.112;2023-07-29T17:22:32;6.63;;;0.70;;
35223;SDS011;21367;51.930;8.112;2023-07-29T17:27:37;3.25;;;0.93;;
35223;SDS011;21367;51.930;8.112;2023-07-29T17:32:41;4.47;;;1.83;;
35223;SDS011;21367;51.930;8.112;2023-07-29T17:37:47;6.38;;;1.23;;
35223;SDS011;21367;51.930;8.112;2023-07-29T17:42:51;3.13;;;1.40;;
35223;SDS011;21367;51.930;8.112;2023-07-29T17:47:54;5.60;;;2.63;;
35223;SDS011;21367;51.930;8.112;2023-07-29T17:53:01;8.85;;;1.60;;
35223;SDS011;21367;51.930;8.112;2023-07-29T17:58:05;2.80;;;2.00;;
35223;SDS011;21367;51.930;8.112;2023-07-29T18:03:08;4.13;;;1.80;;
35223;SDS011;21367;51.930;8.112;2023-07-29T18:08:14;5.07;;;1.73;;
35223;SDS011;21367;51.930;8.112;2023-07-29T18:13:18;3.70;;;1.95;;
35223;SDS011;21367;51.930;8.112;2023-07-29T18:18:22;3.25;;;1.90;;
35223;SDS011;21367;51.930;8.112;2023-07-29T18:23:29;11.07;;;1.70;;
35223;SDS011;21367;51.930;8.112;2023-07-29T18:28:32;3.38;;;1.60;;
35223;SDS011;21367;51.930;8.112;2023-07-29T18:33:36;4.30;;;1.92;;
35223;SDS011;21367;51.930;8.112;2023-07-29T18:38:42;8.75;;;2.10;;
35223;SDS011;21367;51.930;8.112;2023-07-29T18:43:46;6.45;;;1.83;;
35223;SDS011;21367;51.930;8.112;2023-07-29T18:48:57;5.72;;;1.98;;
35223;SDS011;21367;51.930;8.112;2023-07-29T18:54:05;7.70;;;2.55;;
35223;SDS011;21367;51.930;8.112;2023-07-29T18:59:08;5.28;;;2.00;;
35223;SDS011;21367;51.930;8.112;2023-07-29T19:04:12;6.05;;;2.47;;
35223;SDS011;21367;51.930;8.112;2023-07-29T19:09:19;4.00;;;2.20;;
35223;SDS011;21367;51.930;8.112;2023-07-29T19:14:23;6.55;;;2.13;;
35223;SDS011;21367;51.930;8.112;2023-07-29T19:19:26;4.55;;;2.10;;
35223;SDS011;21367;51.930;8.112;2023-07-29T19:24:33;3.10;;;1.80;;
35223;SDS011;21367;51.930;8.112;2023-07-29T19:29:36;4.22;;;1.75;;
35223;SDS011;21367;51.930;8.112;2023-07-29T19:34:40;7.95;;;2.53;;
35223;SDS011;21367;51.930;8.112;2023-07-29T19:39:47;5.45;;;1.90;;
35223;SDS011;21367;51.930;8.112;2023-07-29T19:44:51;8.40;;;2.33;;
35223;SDS011;21367;51.930;8.112;2023-07-29T19:49:54;5.45;;;2.40;;
35223;SDS011;21367;51.930;8.112;2023-07-29T19:55:01;3.50;;;2.17;;
35223;SDS011;21367;51.930;8.112;2023-07-29T20:00:06;7.43;;;2.10;;
35223;SDS011;21367;51.930;8.112;2023-07-29T20:05:10;8.98;;;2.60;;
35223;SDS011;21367;51.930;8.112;2023-07-29T20:10:17;4.15;;;2.05;;
35223;SDS011;21367;51.930;8.112;2023-07-29T20:15:20;7.05;;;2.53;;
35223;SDS011;21367;51.930;8.112;2023-07-29T20:20:24;8.93;;;2.45;;
35223;SDS011;21367;51.930;8.112;2023-07-29T20:25:30;7.78;;;2.00;;
35223;SDS011;21367;51.930;8.112;2023-07-29T20:30:35;11.48;;;3.45;;
35223;SDS011;21367;51.930;8.112;2023-07-29T20:35:39;6.40;;;2.35;;
35223;SDS011;21367;51.930;8.112;2023-07-29T20:40:50;10.93;;;4.55;;
35223;SDS011;21367;51.930;8.112;2023-07-29T20:45:54;8.00;;;3.00;;
35223;SDS011;21367;51.930;8.112;2023-07-29T20:50:58;4.13;;;2.50;;
35223;SDS011;21367;51.930;8.112;2023-07-29T20:56:04;7.10;;;2.40;;
35223;SDS011;21367;51.930;8.112;2023-07-29T21:01:08;7.45;;;2.72;;
35223;SDS011;21367;51.930;8.112;2023-07-29T21:06:12;8.73;;;2.88;;
35223;SDS011;21367;51.930;8.112;2023-07-29T21:11:18;5.38;;;2.90;;
35223;SDS011;21367;51.930;8.112;2023-07-29T21:16:22;5.07;;;2.90;;
35223;SDS011;21367;51.930;8.112;2023-07-29T21:21:26;7.82;;;2.92;;
35223;SDS011;21367;51.930;8.112;2023-07-29T21:26:32;8.18;;;3.42;;
35223;SDS011;21367;51.930;8.112;2023-07-29T21:31:36;5.00;;;3.20;;
35223;SDS011;21367;51.930;8.112;2023-07-29T21:36:39;4.25;;;2.90;;
35223;SDS011;21367;51.930;8.112;2023-07-29T21:41:45;10.32;;;3.25;;
35223;SDS011;21367;51.930;8.112;2023-07-29T21:46:49;9.52;;;3.20;;
35223;SDS011;21367;51.930;8.112;2023-07-29T21:51:53;4.93;;;3.08;;
35223;SDS011;21367;51.930;8.112;2023-07-29T21:56:59;14.35;;;4.40;;
35223;SDS011;21367;51.930;8.112;2023-07-29T22:02:03;9.73;;;3.45;;
35223;SDS011;21367;51.930;8.112;2023-07-29T22:07:07;8.93;;;3.38;;
35223;SDS011;21367;51.930;8.112;2023-07-29T22:12:13;8.23;;;3.83;;
35223;SDS011;21367;51.930;8.112;2023-07-29T22:17:17;10.98;;;3.70;;
35223;SDS011;21367;51.930;8.112;2023-07-29T22:22:21;9.30;;;4.13;;
35223;SDS011;21367;51.930;8.112;2023-07-29T22:27:27;13.35;;;3.85;;
35223;SDS011;21367;51.930;8.112;2023-07-29T22:32:31;7.57;;;4.15;;
35223;SDS011;21367;51.930;8.112;2023-07-29T22:37:34;8.02;;;4.13;;
35223;SDS011;21367;51.930;8.112;2023-07-29T22:42:40;9.02;;;3.50;;
35223;SDS011;21367;51.930;8.112;2023-07-29T22:47:44;9.60;;;4.10;;
35223;SDS011;21367;51.930;8.112;2023-07-29T22:52:48;9.70;;;3.80;;
35223;SDS011;21367;51.930;8.112;2023-07-29T22:57:54;7.10;;;4.00;;
35223;SDS011;21367;51.930;8.112;2023-07-29T23:02:57;8.93;;;3.45;;
35223;SDS011;21367;51.930;8.112;2023-07-29T23:08:01;13.35;;;4.80;;
35223;SDS011;21367;51.930;8.112;2023-07-29T23:13:08;7.43;;;4.15;;
35223;SDS011;21367;51.930;8.112;2023-07-29T23:18:12;8.88;;;4.43;;
35223;SDS011;21367;51.930;8.112;2023-07-29T23:23:15;9.18;;;4.65;;
35223;SDS011;21367;51.930;8.112;2023-07-29T23:28:21;12.88;;;5.22;;
35223;SDS011;21367;51.930;8.112;2023-07-29T23:33:25;13.50;;;4.78;;
35223;SDS011;21367;51.930;8.112;2023-07-29T23:38:29;10.45;;;4.95;;
35223;SDS011;21367;51.930;8.112;2023-07-29T23:43:35;10.70;;;4.43;;
35223;SDS011;21367;51.930;8.112;2023-07-29T23:48:38;10.00;;;4.63;;
35223;SDS011;21367;51.930;8.112;2023-07-29T23:53:42;12.18;;;4.93;;
35223;SDS011;21367;51.930;8.112;2023-07-29T23:58:48;15.40;;;4.82;;
